sensor_id;sensor_type;location;lat;lon;timestamp;pressure;altitude;pressure_sealevel;temperature;humidity
28008;BME280;15333;50.010;20.020;2022-11-15T00:00:55;99160.50;;;3.52;100.00
28008;BME280;15333;50.010;20.020;2022-11-15T00:04:15;99163.81;;;3.58;100.00
28008;BME280;15333;50.010;20.020;2022-11-15T00:07:35;99154.16;;;3.57;100.00
28008;BME280;15333;50.010;20.020;2022-11-15T00:10:59;99146.63;;;3.47;100.00
28008;BME280;15333;50.010;20.020;2022-11-15T00:14:18;99156.44;;;3.44;100.00
28008;BME280;15333;50.010;20.020;2022-11-15T00:17:38;99151.66;;;3.53;100.00
28008;BME280;15333;50.010;20.020;2022-11-15T00:21:04;99144.28;;;3.40;100.00
28008;BME280;15333;50.010;20.020;2022-11-15T00:24:24;99146.00;;;3.41;100.00
28008;BME280;15333;50.010;20.020;2022-11-15T00:27:43;99142.34;;;3.43;100.00
28008;BME280;15333;50.010;20.020;2022-11-15T00:31:07;99142.34;;;3.43;100.00
28008;BME280;15333;50.010;20.020;2022-11-15T00:34:27;99140.09;;;3.34;100.00
28008;BME280;15333;50.010;20.020;2022-11-15T00:37:47;99136.53;;;3.35;100.00
28008;BME280;15333;50.010;20.020;2022-11-15T00:41:07;99137.84;;;3.25;100.00
28008;BME280;15333;50.010;20.020;2022-11-15T00:44:26;99129.09;;;3.23;100.00
28008;BME280;15333;50.010;20.020;2022-11-15T00:47:46;99128.78;;;3.31;100.00
28008;BME280;15333;50.010;20.020;2022-11-15T00:51:06;99119.88;;;3.33;100.00
28008;BME280;15333;50.010;20.020;2022-11-15T00:54:25;99108.00;;;3.22;100.00
28008;BME280;15333;50.010;20.020;2022-11-15T00:57:45;99110.06;;;3.35;100.00
28008;BME280;15333;50.010;20.020;2022-11-15T01:01:07;99117.09;;;3.36;100.00
28008;BME280;15333;50.010;20.020;2022-11-15T01:04:27;99112.09;;;3.29;100.00
28008;BME280;15333;50.010;20.020;2022-11-15T01:07:46;99109.94;;;3.38;100.00
28008;BME280;15333;50.010;20.020;2022-11-15T01:11:08;99106.66;;;3.33;100.00
28008;BME280;15333;50.010;20.020;2022-11-15T01:14:28;99104.41;;;3.44;100.00
28008;BME280;15333;50.010;20.020;2022-11-15T01:17:47;99111.94;;;3.33;100.00
28008;BME280;15333;50.010;20.020;2022-11-15T01:21:09;99102.53;;;3.26;100.00
28008;BME280;15333;50.010;20.020;2022-11-15T01:24:28;99109.00;;;3.19;100.00
28008;BME280;15333;50.010;20.020;2022-11-15T01:27:48;99108.44;;;3.11;100.00
28008;BME280;15333;50.010;20.020;2022-11-15T01:31:16;99108.00;;;3.00;100.00
28008;BME280;15333;50.010;20.020;2022-11-15T01:34:35;99109.88;;;2.98;100.00
28008;BME280;15333;50.010;20.020;2022-11-15T01:37:55;99091.22;;;3.01;100.00
28008;BME280;15333;50.010;20.020;2022-11-15T01:41:16;99092.22;;;2.98;100.00
28008;BME280;15333;50.010;20.020;2022-11-15T01:44:46;99092.03;;;3.03;100.00
28008;BME280;15333;50.010;20.020;2022-11-15T01:48:08;99092.88;;;3.03;100.00
28008;BME280;15333;50.010;20.020;2022-11-15T01:51:31;99100.00;;;3.01;100.00
28008;BME280;15333;50.010;20.020;2022-11-15T01:55:17;99100.16;;;2.98;100.00
28008;BME280;15333;50.010;20.020;2022-11-15T01:58:38;99097.06;;;3.09;100.00
28008;BME280;15333;50.010;20.020;2022-11-15T02:01:59;99090.59;;;3.16;100.00
28008;BME280;15333;50.010;20.020;2022-11-15T02:05:19;99088.94;;;3.13;100.00
28008;BME280;15333;50.010;20.020;2022-11-15T02:08:38;99082.91;;;3.10;100.00
28008;BME280;15333;50.010;20.020;2022-11-15T02:11:59;99081.31;;;3.06;100.00
28008;BME280;15333;50.010;20.020;2022-11-15T02:15:18;99076.56;;;3.14;100.00
28008;BME280;15333;50.010;20.020;2022-11-15T02:18:43;99080.78;;;3.20;100.00
28008;BME280;15333;50.010;20.020;2022-11-15T02:33:19;99065.88;;;3.17;100.00
28008;BME280;15333;50.010;20.020;2022-11-15T02:37:01;99070.63;;;3.09;100.00
28008;BME280;15333;50.010;20.020;2022-11-15T02:54:17;99050.44;;;2.85;100.00
28008;BME280;15333;50.010;20.020;2022-11-15T02:57:51;99041.28;;;2.93;100.00
28008;BME280;15333;50.010;20.020;2022-11-15T03:04:55;99040.69;;;2.87;100.00
28008;BME280;15333;50.010;20.020;2022-11-15T03:11:46;99028.69;;;2.56;100.00
28008;BME280;15333;50.010;20.020;2022-11-15T03:15:20;99026.75;;;2.61;100.00
28008;BME280;15333;50.010;20.020;2022-11-15T03:18:48;99026.25;;;2.52;100.00
28008;BME280;15333;50.010;20.020;2022-11-15T03:22:15;99023.66;;;2.50;100.00
28008;BME280;15333;50.010;20.020;2022-11-15T03:25:41;99021.63;;;2.57;100.00
28008;BME280;15333;50.010;20.020;2022-11-15T03:29:09;99022.63;;;2.54;100.00
28008;BME280;15333;50.010;20.020;2022-11-15T03:32:37;99017.03;;;2.40;100.00
28008;BME280;15333;50.010;20.020;2022-11-15T03:35:57;99015.16;;;2.42;100.00
28008;BME280;15333;50.010;20.020;2022-11-15T03:39:19;99021.44;;;2.40;100.00
28008;BME280;15333;50.010;20.020;2022-11-15T03:42:54;99008.19;;;2.41;100.00
28008;BME280;15333;50.010;20.020;2022-11-15T03:46:23;99014.50;;;2.37;100.00
28008;BME280;15333;50.010;20.020;2022-11-15T03:49:46;99010.25;;;2.33;100.00
28008;BME280;15333;50.010;20.020;2022-11-15T03:53:09;98999.69;;;2.33;100.00
28008;BME280;15333;50.010;20.020;2022-11-15T03:56:28;98990.00;;;2.33;100.00
28008;BME280;15333;50.010;20.020;2022-11-15T03:59:48;98980.31;;;2.34;100.00
28008;BME280;15333;50.010;20.020;2022-11-15T04:03:07;98974.88;;;2.37;100.00
28008;BME280;15333;50.010;20.020;2022-11-15T04:06:27;98969.84;;;2.31;100.00
28008;BME280;15333;50.010;20.020;2022-11-15T04:09:46;98973.66;;;2.24;100.00
28008;BME280;15333;50.010;20.020;2022-11-15T04:13:21;98965.47;;;2.30;100.00
28008;BME280;15333;50.010;20.020;2022-11-15T04:16:40;98965.06;;;2.19;100.00
28008;BME280;15333;50.010;20.020;2022-11-15T04:20:00;98955.09;;;2.04;100.00
28008;BME280;15333;50.010;20.020;2022-11-15T04:23:38;98956.19;;;1.98;100.00
28008;BME280;15333;50.010;20.020;2022-11-15T04:27:16;98943.16;;;1.93;100.00
28008;BME280;15333;50.010;20.020;2022-11-15T04:30:36;98938.00;;;1.90;100.00
28008;BME280;15333;50.010;20.020;2022-11-15T04:33:56;98938.25;;;1.84;100.00
28008;BME280;15333;50.010;20.020;2022-11-15T04:37:15;98932.31;;;1.78;100.00
28008;BME280;15333;50.010;20.020;2022-11-15T04:40:36;98923.09;;;1.66;100.00
28008;BME280;15333;50.010;20.020;2022-11-15T04:43:56;98930.19;;;1.64;100.00
28008;BME280;15333;50.010;20.020;2022-11-15T04:47:15;98925.97;;;1.60;100.00
28008;BME280;15333;50.010;20.020;2022-11-15T04:50:35;98923.56;;;1.54;100.00
28008;BME280;15333;50.010;20.020;2022-11-15T04:53:55;98924.16;;;1.62;100.00
28008;BME280;15333;50.010;20.020;2022-11-15T04:57:14;98916.47;;;1.56;100.00
28008;BME280;15333;50.010;20.020;2022-11-15T05:00:35;98917.72;;;1.46;100.00
28008;BME280;15333;50.010;20.020;2022-11-15T05:03:54;98924.81;;;1.44;100.00
28008;BME280;15333;50.010;20.020;2022-11-15T05:07:32;98918.03;;;1.37;100.00
28008;BME280;15333;50.010;20.020;2022-11-15T05:10:52;98919.06;;;1.33;100.00
28008;BME280;15333;50.010;20.020;2022-11-15T05:14:12;98913.69;;;1.36;100.00
28008;BME280;15333;50.010;20.020;2022-11-15T05:17:31;98911.84;;;1.38;100.00
28008;BME280;15333;50.010;20.020;2022-11-15T05:20:51;98909.41;;;1.33;100.00
28008;BME280;15333;50.010;20.020;2022-11-15T05:24:10;98901.63;;;1.29;100.00
28008;BME280;15333;50.010;20.020;2022-11-15T05:27:30;98905.38;;;1.23;100.00
28008;BME280;15333;50.010;20.020;2022-11-15T05:30:49;98900.28;;;1.18;100.00
28008;BME280;15333;50.010;20.020;2022-11-15T05:34:09;98904.41;;;1.26;100.00
28008;BME280;15333;50.010;20.020;2022-11-15T05:37:28;98900.91;;;1.25;100.00
28008;BME280;15333;50.010;20.020;2022-11-15T05:40:48;98892.75;;;1.31;100.00
28008;BME280;15333;50.010;20.020;2022-11-15T05:44:09;98885.53;;;1.36;100.00
28008;BME280;15333;50.010;20.020;2022-11-15T05:47:30;98879.81;;;1.25;100.00
28008;BME280;15333;50.010;20.020;2022-11-15T05:50:50;98878.13;;;1.23;100.00
28008;BME280;15333;50.010;20.020;2022-11-15T05:57:39;98889.72;;;1.18;100.00
28008;BME280;15333;50.010;20.020;2022-11-15T06:00:59;98890.88;;;1.11;100.00
28008;BME280;15333;50.010;20.020;2022-11-15T06:04:19;98889.94;;;1.12;100.00
28008;BME280;15333;50.010;20.020;2022-11-15T06:07:38;98895.22;;;1.12;100.00
28008;BME280;15333;50.010;20.020;2022-11-15T06:11:05;98889.41;;;1.28;100.00
28008;BME280;15333;50.010;20.020;2022-11-15T06:14:25;98881.53;;;1.26;100.00
28008;BME280;15333;50.010;20.020;2022-11-15T06:17:44;98881.13;;;1.37;100.00
28008;BME280;15333;50.010;20.020;2022-11-15T06:21:05;98871.28;;;1.42;100.00
28008;BME280;15333;50.010;20.020;2022-11-15T06:24:24;98878.88;;;1.49;100.00
28008;BME280;15333;50.010;20.020;2022-11-15T06:27:44;98875.97;;;1.57;100.00
28008;BME280;15333;50.010;20.020;2022-11-15T06:31:11;98879.47;;;1.57;100.00
28008;BME280;15333;50.010;20.020;2022-11-15T06:34:30;98878.06;;;1.71;100.00
28008;BME280;15333;50.010;20.020;2022-11-15T06:37:50;98871.97;;;1.70;100.00
28008;BME280;15333;50.010;20.020;2022-11-15T06:41:11;98876.03;;;1.55;100.00
28008;BME280;15333;50.010;20.020;2022-11-15T06:44:30;98872.06;;;1.67;100.00
28008;BME280;15333;50.010;20.020;2022-11-15T06:47:50;98876.53;;;1.65;100.00
28008;BME280;15333;50.010;20.020;2022-11-15T06:51:10;98871.81;;;1.73;100.00
28008;BME280;15333;50.010;20.020;2022-11-15T06:54:29;98876.63;;;1.85;100.00
28008;BME280;15333;50.010;20.020;2022-11-15T06:57:50;98869.66;;;1.84;100.00
28008;BME280;15333;50.010;20.020;2022-11-15T07:01:11;98868.88;;;1.81;100.00
28008;BME280;15333;50.010;20.020;2022-11-15T07:04:30;98862.88;;;1.77;100.00
28008;BME280;15333;50.010;20.020;2022-11-15T07:07:52;98875.22;;;1.77;100.00
28008;BME280;15333;50.010;20.020;2022-11-15T07:11:12;98874.69;;;1.90;100.00
28008;BME280;15333;50.010;20.020;2022-11-15T07:14:31;98875.28;;;1.97;100.00
28008;BME280;15333;50.010;20.020;2022-11-15T07:17:51;98881.75;;;2.12;100.00
28008;BME280;15333;50.010;20.020;2022-11-15T07:21:11;98878.97;;;2.15;100.00
28008;BME280;15333;50.010;20.020;2022-11-15T07:24:31;98875.09;;;2.02;100.00
28008;BME280;15333;50.010;20.020;2022-11-15T07:27:55;98873.13;;;2.07;100.00
28008;BME280;15333;50.010;20.020;2022-11-15T07:31:14;98868.03;;;2.24;100.00
28008;BME280;15333;50.010;20.020;2022-11-15T07:34:34;98862.25;;;2.36;100.00
28008;BME280;15333;50.010;20.020;2022-11-15T07:37:59;98847.59;;;2.49;100.00
28008;BME280;15333;50.010;20.020;2022-11-15T07:41:19;98848.94;;;2.59;100.00
28008;BME280;15333;50.010;20.020;2022-11-15T07:44:38;98845.00;;;2.69;100.00
28008;BME280;15333;50.010;20.020;2022-11-15T07:47:58;98842.34;;;2.69;100.00
28008;BME280;15333;50.010;20.020;2022-11-15T07:51:17;98848.22;;;2.96;100.00
28008;BME280;15333;50.010;20.020;2022-11-15T07:54:38;98846.88;;;3.06;100.00
28008;BME280;15333;50.010;20.020;2022-11-15T07:58:05;98835.53;;;3.23;100.00
28008;BME280;15333;50.010;20.020;2022-11-15T08:01:25;98840.06;;;3.01;100.00
28008;BME280;15333;50.010;20.020;2022-11-15T08:04:44;98843.34;;;3.06;100.00
28008;BME280;15333;50.010;20.020;2022-11-15T08:08:04;98836.09;;;3.11;100.00
28008;BME280;15333;50.010;20.020;2022-11-15T08:11:24;98831.22;;;3.02;100.00
28008;BME280;15333;50.010;20.020;2022-11-15T08:14:43;98838.50;;;2.97;100.00
28008;BME280;15333;50.010;20.020;2022-11-15T08:18:14;98833.16;;;2.98;100.00
28008;BME280;15333;50.010;20.020;2022-11-15T08:21:37;98826.81;;;3.21;100.00
28008;BME280;15333;50.010;20.020;2022-11-15T08:24:56;98827.13;;;3.52;100.00
28008;BME280;15333;50.010;20.020;2022-11-15T08:28:16;98829.50;;;3.59;100.00
28008;BME280;15333;50.010;20.020;2022-11-15T08:31:36;98828.28;;;3.47;100.00
28008;BME280;15333;50.010;20.020;2022-11-15T08:34:56;98827.13;;;3.52;100.00
28008;BME280;15333;50.010;20.020;2022-11-15T08:38:15;98816.78;;;3.48;100.00
28008;BME280;15333;50.010;20.020;2022-11-15T08:41:37;98820.72;;;3.94;100.00
28008;BME280;15333;50.010;20.020;2022-11-15T08:44:56;98821.88;;;3.70;100.00
28008;BME280;15333;50.010;20.020;2022-11-15T08:48:16;98826.13;;;3.74;100.00
28008;BME280;15333;50.010;20.020;2022-11-15T08:51:35;98818.97;;;3.76;100.00
28008;BME280;15333;50.010;20.020;2022-11-15T08:54:55;98817.38;;;3.72;100.00
28008;BME280;15333;50.010;20.020;2022-11-15T08:58:14;98821.53;;;3.96;100.00
28008;BME280;15333;50.010;20.020;2022-11-15T09:01:34;98816.41;;;4.27;100.00
28008;BME280;15333;50.010;20.020;2022-11-15T09:04:53;98814.72;;;4.44;100.00
28008;BME280;15333;50.010;20.020;2022-11-15T09:08:12;98809.44;;;4.61;100.00
28008;BME280;15333;50.010;20.020;2022-11-15T09:11:32;98806.63;;;4.64;100.00
28008;BME280;15333;50.010;20.020;2022-11-15T09:14:51;98804.13;;;4.61;100.00
28008;BME280;15333;50.010;20.020;2022-11-15T09:18:11;98798.34;;;4.87;100.00
28008;BME280;15333;50.010;20.020;2022-11-15T09:21:31;98792.69;;;4.93;100.00
28008;BME280;15333;50.010;20.020;2022-11-15T09:24:50;98795.34;;;4.93;100.00
28008;BME280;15333;50.010;20.020;2022-11-15T09:28:09;98794.97;;;4.84;100.00
28008;BME280;15333;50.010;20.020;2022-11-15T09:31:29;98781.16;;;4.94;100.00
28008;BME280;15333;50.010;20.020;2022-11-15T09:34:49;98784.28;;;5.02;100.00
28008;BME280;15333;50.010;20.020;2022-11-15T09:38:09;98788.75;;;5.18;100.00
28008;BME280;15333;50.010;20.020;2022-11-15T09:41:42;98777.22;;;5.50;100.00
28008;BME280;15333;50.010;20.020;2022-11-15T09:48:55;98768.41;;;5.65;100.00
28008;BME280;15333;50.010;20.020;2022-11-15T09:52:03;98772.53;;;5.86;100.00
28008;BME280;15333;50.010;20.020;2022-11-15T09:55:05;98782.72;;;5.47;100.00
28008;BME280;15333;50.010;20.020;2022-11-15T10:04:38;98775.94;;;5.41;100.00
28008;BME280;15333;50.010;20.020;2022-11-15T10:11:14;98766.19;;;5.42;100.00
28008;BME280;15333;50.010;20.020;2022-11-15T10:14:19;98762.59;;;5.43;100.00
28008;BME280;15333;50.010;20.020;2022-11-15T10:24:22;98746.47;;;5.77;100.00
28008;BME280;15333;50.010;20.020;2022-11-15T10:27:24;98739.44;;;6.08;100.00
28008;BME280;15333;50.010;20.020;2022-11-15T10:30:56;98740.63;;;6.18;100.00
28008;BME280;15333;50.010;20.020;2022-11-15T10:34:20;98720.72;;;6.25;100.00
28008;BME280;15333;50.010;20.020;2022-11-15T10:37:31;98709.53;;;6.34;100.00
28008;BME280;15333;50.010;20.020;2022-11-15T10:40:33;98695.50;;;6.32;100.00
28008;BME280;15333;50.010;20.020;2022-11-15T10:43:34;98689.97;;;6.35;100.00
28008;BME280;15333;50.010;20.020;2022-11-15T10:46:36;98703.09;;;6.38;100.00
28008;BME280;15333;50.010;20.020;2022-11-15T10:49:53;98700.22;;;6.41;100.00
28008;BME280;15333;50.010;20.020;2022-11-15T10:52:54;98681.59;;;6.27;100.00
28008;BME280;15333;50.010;20.020;2022-11-15T10:55:57;98679.91;;;6.40;100.00
28008;BME280;15333;50.010;20.020;2022-11-15T10:59:00;98680.78;;;6.55;100.00
28008;BME280;15333;50.010;20.020;2022-11-15T11:02:01;98671.59;;;6.75;100.00
28008;BME280;15333;50.010;20.020;2022-11-15T11:05:04;98669.59;;;6.92;100.00
28008;BME280;15333;50.010;20.020;2022-11-15T11:11:12;98651.16;;;7.44;100.00
28008;BME280;15333;50.010;20.020;2022-11-15T11:17:39;98646.50;;;7.61;100.00
28008;BME280;15333;50.010;20.020;2022-11-15T11:20:57;98637.16;;;7.68;100.00
28008;BME280;15333;50.010;20.020;2022-11-15T11:24:14;98630.41;;;7.89;100.00
28008;BME280;15333;50.010;20.020;2022-11-15T11:47:30;98623.88;;;8.71;93.10
28008;BME280;15333;50.010;20.020;2022-11-15T11:50:31;98610.22;;;8.62;94.10
28008;BME280;15333;50.010;20.020;2022-11-15T11:54:17;98613.97;;;8.47;94.79
28008;BME280;15333;50.010;20.020;2022-11-15T11:57:41;98602.13;;;8.39;93.88
28008;BME280;15333;50.010;20.020;2022-11-15T12:00:51;98597.56;;;8.41;93.46
28008;BME280;15333;50.010;20.020;2022-11-15T12:03:58;98603.31;;;8.35;93.99
28008;BME280;15333;50.010;20.020;2022-11-15T12:07:04;98594.56;;;8.33;95.48
28008;BME280;15333;50.010;20.020;2022-11-15T12:10:24;98596.34;;;8.19;96.61
28008;BME280;15333;50.010;20.020;2022-11-15T12:13:30;98588.44;;;8.05;98.06
28008;BME280;15333;50.010;20.020;2022-11-15T12:16:35;98589.06;;;7.96;98.90
28008;BME280;15333;50.010;20.020;2022-11-15T12:19:41;98581.50;;;7.90;100.00
28008;BME280;15333;50.010;20.020;2022-11-15T12:22:48;98580.75;;;7.88;100.00
28008;BME280;15333;50.010;20.020;2022-11-15T12:25:54;98571.78;;;7.89;99.81
28008;BME280;15333;50.010;20.020;2022-11-15T12:29:00;98577.13;;;7.89;100.00
28008;BME280;15333;50.010;20.020;2022-11-15T12:32:03;98572.22;;;7.83;100.00
28008;BME280;15333;50.010;20.020;2022-11-15T12:35:41;98573.31;;;7.93;99.74
28008;BME280;15333;50.010;20.020;2022-11-15T12:38:52;98566.69;;;7.86;99.96
28008;BME280;15333;50.010;20.020;2022-11-15T12:44:57;98553.13;;;7.89;99.16
28008;BME280;15333;50.010;20.020;2022-11-15T12:57:51;98543.25;;;8.29;97.17
28008;BME280;15333;50.010;20.020;2022-11-15T13:00:52;98539.19;;;8.49;95.28
28008;BME280;15333;50.010;20.020;2022-11-15T13:04:14;98544.75;;;8.58;94.27
28008;BME280;15333;50.010;20.020;2022-11-15T13:10:40;98535.31;;;8.78;93.32
28008;BME280;15333;50.010;20.020;2022-11-15T13:13:44;98535.06;;;8.81;91.76
28008;BME280;15333;50.010;20.020;2022-11-15T13:16:46;98538.44;;;8.96;91.94
28008;BME280;15333;50.010;20.020;2022-11-15T13:23:15;98526.53;;;9.13;90.53
28008;BME280;15333;50.010;20.020;2022-11-15T13:26:17;98521.69;;;9.18;89.51
28008;BME280;15333;50.010;20.020;2022-11-15T13:29:19;98520.69;;;9.08;90.65
28008;BME280;15333;50.010;20.020;2022-11-15T13:32:21;98524.53;;;9.03;91.38
28008;BME280;15333;50.010;20.020;2022-11-15T13:35:27;98513.00;;;9.03;91.93
28008;BME280;15333;50.010;20.020;2022-11-15T13:38:31;98512.31;;;9.12;91.37
28008;BME280;15333;50.010;20.020;2022-11-15T13:41:34;98506.91;;;9.25;90.55
28008;BME280;15333;50.010;20.020;2022-11-15T13:44:35;98497.47;;;9.32;88.87
28008;BME280;15333;50.010;20.020;2022-11-15T13:47:36;98489.03;;;9.14;91.04
28008;BME280;15333;50.010;20.020;2022-11-15T13:50:38;98476.63;;;9.02;92.01
28008;BME280;15333;50.010;20.020;2022-11-15T13:53:42;98480.69;;;8.95;92.28
28008;BME280;15333;50.010;20.020;2022-11-15T13:56:52;98479.84;;;8.94;92.92
28008;BME280;15333;50.010;20.020;2022-11-15T14:00:00;98471.84;;;8.94;92.24
28008;BME280;15333;50.010;20.020;2022-11-15T14:06:21;98481.59;;;9.07;90.08
28008;BME280;15333;50.010;20.020;2022-11-15T14:09:40;98483.31;;;9.08;89.49
28008;BME280;15333;50.010;20.020;2022-11-15T14:12:50;98491.03;;;8.99;90.61
28008;BME280;15333;50.010;20.020;2022-11-15T14:15:51;98489.28;;;8.87;92.17
28008;BME280;15333;50.010;20.020;2022-11-15T14:18:52;98490.44;;;8.83;91.71
28008;BME280;15333;50.010;20.020;2022-11-15T14:22:22;98487.03;;;8.81;92.23
28008;BME280;15333;50.010;20.020;2022-11-15T14:25:31;98472.72;;;8.82;92.42
28008;BME280;15333;50.010;20.020;2022-11-15T14:28:34;98472.31;;;8.76;92.62
28008;BME280;15333;50.010;20.020;2022-11-15T14:31:38;98467.22;;;8.73;92.45
28008;BME280;15333;50.010;20.020;2022-11-15T14:34:42;98458.59;;;8.69;92.52
28008;BME280;15333;50.010;20.020;2022-11-15T14:37:43;98463.91;;;8.69;92.36
28008;BME280;15333;50.010;20.020;2022-11-15T14:40:44;98463.19;;;8.67;92.72
28008;BME280;15333;50.010;20.020;2022-11-15T14:43:45;98461.72;;;8.63;92.88
28008;BME280;15333;50.010;20.020;2022-11-15T14:46:46;98470.91;;;8.59;94.41
28008;BME280;15333;50.010;20.020;2022-11-15T14:49:48;98457.88;;;8.54;94.93
28008;BME280;15333;50.010;20.020;2022-11-15T14:52:49;98455.56;;;8.50;95.67
28008;BME280;15333;50.010;20.020;2022-11-15T14:55:50;98460.91;;;8.50;95.95
28008;BME280;15333;50.010;20.020;2022-11-15T14:58:51;98452.59;;;8.42;97.74
28008;BME280;15333;50.010;20.020;2022-11-15T15:01:51;98445.16;;;8.34;100.00
28008;BME280;15333;50.010;20.020;2022-11-15T15:04:52;98445.56;;;8.28;100.00
28008;BME280;15333;50.010;20.020;2022-11-15T15:07:53;98432.44;;;8.25;100.00
28008;BME280;15333;50.010;20.020;2022-11-15T15:10:54;98441.53;;;8.22;100.00
28008;BME280;15333;50.010;20.020;2022-11-15T15:13:55;98435.53;;;8.19;100.00
28008;BME280;15333;50.010;20.020;2022-11-15T15:16:58;98430.97;;;8.21;100.00
28008;BME280;15333;50.010;20.020;2022-11-15T15:19:58;98432.16;;;8.17;100.00
28008;BME280;15333;50.010;20.020;2022-11-15T15:22:59;98426.19;;;8.13;100.00
28008;BME280;15333;50.010;20.020;2022-11-15T15:26:00;98423.72;;;8.10;100.00
28008;BME280;15333;50.010;20.020;2022-11-15T15:29:01;98421.06;;;8.10;100.00
28008;BME280;15333;50.010;20.020;2022-11-15T15:32:02;98413.81;;;8.12;100.00
28008;BME280;15333;50.010;20.020;2022-11-15T15:35:03;98411.25;;;8.11;100.00
28008;BME280;15333;50.010;20.020;2022-11-15T15:38:04;98413.06;;;8.10;100.00
28008;BME280;15333;50.010;20.020;2022-11-15T15:41:09;98408.47;;;8.12;100.00
28008;BME280;15333;50.010;20.020;2022-11-15T15:44:10;98409.97;;;8.16;100.00
28008;BME280;15333;50.010;20.020;2022-11-15T15:47:22;98402.09;;;8.15;100.00
28008;BME280;15333;50.010;20.020;2022-11-15T15:50:28;98398.22;;;8.19;100.00
28008;BME280;15333;50.010;20.020;2022-11-15T15:53:29;98395.44;;;8.33;100.00
28008;BME280;15333;50.010;20.020;2022-11-15T15:56:31;98405.78;;;8.25;100.00
28008;BME280;15333;50.010;20.020;2022-11-15T15:59:32;98404.22;;;8.22;100.00
28008;BME280;15333;50.010;20.020;2022-11-15T16:02:33;98401.44;;;8.37;100.00
28008;BME280;15333;50.010;20.020;2022-11-15T16:05:34;98403.97;;;8.25;100.00
28008;BME280;15333;50.010;20.020;2022-11-15T16:08:34;98402.25;;;8.24;100.00
28008;BME280;15333;50.010;20.020;2022-11-15T16:11:35;98399.38;;;8.27;100.00
28008;BME280;15333;50.010;20.020;2022-11-15T16:14:36;98400.56;;;8.36;100.00
28008;BME280;15333;50.010;20.020;2022-11-15T16:17:40;98402.81;;;8.30;100.00
28008;BME280;15333;50.010;20.020;2022-11-15T16:20:45;98402.59;;;8.33;100.00
28008;BME280;15333;50.010;20.020;2022-11-15T16:23:46;98401.31;;;8.25;100.00
28008;BME280;15333;50.010;20.020;2022-11-15T16:26:48;98403.97;;;8.25;100.00
28008;BME280;15333;50.010;20.020;2022-11-15T16:29:50;98408.91;;;8.19;100.00
28008;BME280;15333;50.010;20.020;2022-11-15T16:32:51;98408.94;;;8.06;100.00
28008;BME280;15333;50.010;20.020;2022-11-15T16:35:52;98405.94;;;7.98;100.00
28008;BME280;15333;50.010;20.020;2022-11-15T16:38:53;98404.47;;;7.94;100.00
28008;BME280;15333;50.010;20.020;2022-11-15T16:41:54;98403.81;;;7.91;100.00
28008;BME280;15333;50.010;20.020;2022-11-15T16:44:54;98396.94;;;7.88;100.00
28008;BME280;15333;50.010;20.020;2022-11-15T16:47:55;98394.47;;;7.85;100.00
28008;BME280;15333;50.010;20.020;2022-11-15T16:50:57;98385.72;;;7.83;100.00
28008;BME280;15333;50.010;20.020;2022-11-15T16:53:58;98392.66;;;7.85;100.00
28008;BME280;15333;50.010;20.020;2022-11-15T16:56:59;98384.25;;;7.79;100.00
28008;BME280;15333;50.010;20.020;2022-11-15T17:00:00;98388.53;;;7.81;100.00
28008;BME280;15333;50.010;20.020;2022-11-15T17:03:01;98387.66;;;7.81;100.00
28008;BME280;15333;50.010;20.020;2022-11-15T17:06:03;98379.22;;;7.87;100.00
28008;BME280;15333;50.010;20.020;2022-11-15T17:09:03;98376.78;;;7.84;100.00
28008;BME280;15333;50.010;20.020;2022-11-15T17:12:05;98376.25;;;7.79;100.00
28008;BME280;15333;50.010;20.020;2022-11-15T17:15:06;98371.00;;;7.90;100.00
28008;BME280;15333;50.010;20.020;2022-11-15T17:18:10;98363.56;;;7.95;100.00
28008;BME280;15333;50.010;20.020;2022-11-15T17:21:14;98356.53;;;7.94;100.00
28008;BME280;15333;50.010;20.020;2022-11-15T17:24:16;98360.78;;;7.84;100.00
28008;BME280;15333;50.010;20.020;2022-11-15T17:27:16;98357.59;;;7.79;100.00
28008;BME280;15333;50.010;20.020;2022-11-15T17:30:17;98354.63;;;7.71;100.00
28008;BME280;15333;50.010;20.020;2022-11-15T17:33:19;98355.94;;;7.65;100.00
28008;BME280;15333;50.010;20.020;2022-11-15T17:36:20;98359.75;;;7.61;100.00
28008;BME280;15333;50.010;20.020;2022-11-15T17:39:22;98363.06;;;7.65;100.00
28008;BME280;15333;50.010;20.020;2022-11-15T17:42:24;98347.53;;;7.59;100.00
28008;BME280;15333;50.010;20.020;2022-11-15T17:45:25;98353.81;;;7.58;100.00
28008;BME280;15333;50.010;20.020;2022-11-15T17:48:26;98350.81;;;7.50;100.00
28008;BME280;15333;50.010;20.020;2022-11-15T17:51:27;98350.81;;;7.50;100.00
28008;BME280;15333;50.010;20.020;2022-11-15T17:54:28;98345.50;;;7.50;100.00
28008;BME280;15333;50.010;20.020;2022-11-15T17:57:28;98345.69;;;7.46;100.00
28008;BME280;15333;50.010;20.020;2022-11-15T18:00:29;98346.97;;;7.54;100.00
28008;BME280;15333;50.010;20.020;2022-11-15T18:03:33;98344.31;;;7.54;100.00
28008;BME280;15333;50.010;20.020;2022-11-15T18:06:35;98336.56;;;7.51;100.00
28008;BME280;15333;50.010;20.020;2022-11-15T18:09:36;98330.47;;;7.48;100.00
28008;BME280;15333;50.010;20.020;2022-11-15T18:12:38;98318.66;;;7.53;100.00
28008;BME280;15333;50.010;20.020;2022-11-15T18:15:39;98315.78;;;7.56;100.00
28008;BME280;15333;50.010;20.020;2022-11-15T18:18:40;98317.44;;;7.69;100.00
28008;BME280;15333;50.010;20.020;2022-11-15T18:21:43;98310.22;;;7.71;100.00
28008;BME280;15333;50.010;20.020;2022-11-15T18:24:56;98308.84;;;7.66;100.00
28008;BME280;15333;50.010;20.020;2022-11-15T18:27:56;98308.09;;;7.64;100.00
28008;BME280;15333;50.010;20.020;2022-11-15T18:30:58;98312.47;;;7.65;100.00
28008;BME280;15333;50.010;20.020;2022-11-15T18:33:59;98301.38;;;7.71;100.00
28008;BME280;15333;50.010;20.020;2022-11-15T18:37:01;98305.63;;;7.73;100.00
28008;BME280;15333;50.010;20.020;2022-11-15T18:40:03;98297.50;;;7.75;100.00